Time;durP1;ratioP1;P1;durP2;ratioP2;P2;SDS_P1;SDS_P2;PMS_P1;PMS_P2;Temp;Humidity;BMP_temperature;BMP_pressure;BME280_temperature;BME280_humidity;BME280_pressure;Samples;Min_cycle;Max_cycle;Signal;HPM_P1;HPM_P2
2023/08/22 00:00:37;;;;;;;2.85;0.95;;;20.50;51.00;;;;;;5036695;28;20063;-63
2023/08/22 00:03:05;;;;;;;3.33;1.00;;;20.30;50.60;;;;;;5020289;28;20025;-62
2023/08/22 00:05:33;;;;;;;1.40;0.70;;;20.20;50.50;;;;;;5036665;28;20328;-62
2023/08/22 00:08:04;;;;;;;1.13;0.80;;;20.10;51.50;;;;;;5036494;28;20163;-63
2023/08/22 00:10:33;;;;;;;1.90;1.00;;;19.80;51.90;;;;;;5036711;28;20021;-63
2023/08/22 00:13:02;;;;;;;1.67;0.80;;;20.00;51.60;;;;;;5020106;28;20455;-63
2023/08/22 00:15:31;;;;;;;2.50;1.10;;;21.10;49.90;;;;;;5037494;28;20444;-63
2023/08/22 00:17:58;;;;;;;2.70;1.25;;;21.60;48.60;;;;;;5019829;28;20025;-63
2023/08/22 00:20:26;;;;;;;2.03;1.10;;;21.70;47.90;;;;;;5036185;28;20073;-63
2023/08/22 00:22:54;;;;;;;2.25;0.90;;;22.20;47.20;;;;;;5037429;28;20523;-63
2023/08/22 00:25:21;;;;;;;1.40;1.10;;;22.60;47.40;;;;;;5019830;28;20029;-62
2023/08/22 00:27:49;;;;;;;2.30;0.90;;;22.90;45.90;;;;;;5036157;28;20025;-62
2023/08/22 00:30:16;;;;;;;0.70;0.70;;;23.10;45.70;;;;;;5037298;28;20436;-64
2023/08/22 00:32:45;;;;;;;2.70;0.90;;;22.70;46.20;;;;;;5037201;28;20034;-63
2023/08/22 00:35:13;;;;;;;1.60;0.90;;;21.80;47.30;;;;;;5037409;28;20053;-63
2023/08/22 00:37:40;;;;;;;2.40;0.93;;;21.70;48.30;;;;;;5019583;28;20111;-63
2023/08/22 00:40:09;;;;;;;11.55;3.45;;;22.60;46.90;;;;;;5035990;28;20045;-63
2023/08/22 00:42:36;;;;;;;6.70;2.33;;;23.50;45.80;;;;;;5037020;28;20352;-63
2023/08/22 00:45:04;;;;;;;6.97;2.20;;;23.90;43.70;;;;;;5018803;28;20026;-63
2023/08/22 00:47:32;;;;;;;8.70;2.70;;;23.80;43.60;;;;;;5019500;28;20356;-64
2023/08/22 00:50:00;;;;;;;1.10;0.77;;;24.20;44.80;;;;;;5036839;28;20029;-63
2023/08/22 00:52:28;;;;;;;1.38;0.90;;;24.50;43.30;;;;;;5019536;28;20137;-63
2023/08/22 00:54:56;;;;;;;1.80;0.93;;;24.60;42.30;;;;;;5036751;28;20029;-63
2023/08/22 00:57:23;;;;;;;1.30;0.95;;;25.20;42.30;;;;;;5035663;28;20116;-62
2023/08/22 00:59:52;;;;;;;2.45;0.95;;;25.50;40.60;;;;;;5035624;28;20108;-63
2023/08/22 01:02:21;;;;;;;1.15;0.80;;;25.10;39.70;;;;;;5019295;28;20021;-62
2023/08/22 01:04:49;;;;;;;1.55;0.80;;;25.00;39.90;;;;;;5019176;28;20037;-63
2023/08/22 01:07:27;;;;;;;0.88;0.70;;;25.40;39.60;;;;;;5035549;28;20029;-63
2023/08/22 01:10:02;;;;;;;1.38;0.70;;;25.70;39.30;;;;;;5035436;28;20029;-62
2023/08/22 01:12:38;;;;;;;0.90;0.60;;;26.40;38.70;;;;;;5036512;28;20049;-62
2023/08/22 01:15:15;;;;;;;1.45;0.80;;;26.50;38.20;;;;;;5002650;28;20037;-62
2023/08/22 01:17:43;;;;;;;1.30;0.80;;;25.90;38.50;;;;;;5019094;28;20043;-65
2023/08/22 01:20:11;;;;;;;2.88;1.02;;;26.40;37.80;;;;;;5018742;28;20041;-65
2023/08/22 01:22:43;;;;;;;1.25;0.90;;;26.50;37.60;;;;;;5018816;28;20053;-65
2023/08/22 01:25:10;;;;;;;2.73;1.00;;;27.00;37.40;;;;;;5018867;28;20029;-65
2023/08/22 01:27:52;;;;;;;1.20;0.90;;;27.00;37.30;;;;;;5018632;28;20037;-65
2023/08/22 01:30:41;;;;;;;1.27;0.90;;;27.10;36.80;;;;;;5018721;28;20055;-65
2023/08/22 01:33:26;;;;;;;0.98;0.80;;;27.10;35.60;;;;;;5018601;28;20083;-65
2023/08/22 01:35:55;;;;;;;1.35;0.90;;;27.10;36.50;;;;;;5004092;28;20383;-65
2023/08/22 01:38:27;;;;;;;1.95;0.70;;;27.20;35.30;;;;;;5002130;28;20022;-65
2023/08/22 01:40:57;;;;;;;0.98;0.70;;;27.60;35.70;;;;;;5002262;28;20040;-65
2023/08/22 01:43:24;;;;;;;1.17;0.80;;;27.10;34.80;;;;;;5035886;28;20051;-64
2023/08/22 01:45:52;;;;;;;1.33;0.90;;;27.20;35.40;;;;;;5018421;28;20112;-66
2023/08/22 01:48:20;;;;;;;0.95;0.70;;;27.30;35.60;;;;;;5034693;28;20025;-65
2023/08/22 01:50:47;;;;;;;1.05;0.70;;;27.50;34.40;;;;;;5018418;28;20029;-65
2023/08/22 01:53:15;;;;;;;1.25;0.70;;;27.80;33.80;;;;;;5034615;28;20025;-64
2023/08/22 01:55:42;;;;;;;1.60;0.73;;;27.20;32.80;;;;;;5018229;28;20454;-65
2023/08/22 01:58:11;;;;;;;1.40;0.70;;;26.70;33.30;;;;;;5035526;28;20021;-65
2023/08/22 02:00:39;;;;;;;1.00;0.68;;;26.00;35.10;;;;;;5018078;28;20447;-65
2023/08/22 02:03:06;;;;;;;0.88;0.70;;;26.40;35.10;;;;;;5034520;28;20041;-65
2023/08/22 02:05:34;;;;;;;1.40;0.70;;;27.10;34.20;;;;;;5034475;28;20053;-65
2023/08/22 02:08:03;;;;;;;1.08;0.70;;;27.60;33.80;;;;;;5034419;28;20022;-65
2023/08/22 02:10:31;;;;;;;0.90;0.73;;;28.20;32.50;;;;;;5034321;28;20022;-64
2023/08/22 02:12:59;;;;;;;1.10;0.70;;;27.70;35.40;;;;;;5018015;28;20036;-65
2023/08/22 02:15:27;;;;;;;1.08;0.68;;;28.00;32.90;;;;;;5034206;28;20112;-65
2023/08/22 02:17:54;;;;;;;0.90;0.60;;;28.20;32.20;;;;;;5034204;28;20049;-65
2023/08/22 02:20:23;;;;;;;1.42;0.60;;;28.20;32.30;;;;;;5030660;28;20045;-65
2023/08/22 02:22:50;;;;;;;1.15;0.60;;;28.30;32.20;;;;;;5031044;28;20030;-67
2023/08/22 02:25:18;;;;;;;1.38;0.60;;;27.50;31.90;;;;;;5015265;28;20025;-65
2023/08/22 02:27:45;;;;;;;0.77;0.60;;;27.20;30.40;;;;;;5015397;28;20026;-66
2023/08/22 02:30:13;;;;;;;1.35;0.68;;;28.30;30.20;;;;;;5030602;28;20026;-65
2023/08/22 02:32:41;;;;;;;0.55;0.45;;;28.00;30.50;;;;;;5015013;28;20109;-64
2023/08/22 02:35:08;;;;;;;0.82;0.60;;;27.40;29.70;;;;;;5030468;28;20053;-66
2023/08/22 02:37:37;;;;;;;1.33;0.50;;;27.60;31.00;;;;;;5015089;28;20329;-64
2023/08/22 02:40:09;;;;;;;0.63;0.50;;;27.20;30.50;;;;;;5030508;28;20026;-65
2023/08/22 02:42:39;;;;;;;0.70;0.60;;;27.70;31.60;;;;;;5016517;28;20029;-64
2023/08/22 02:45:07;;;;;;;0.85;0.73;;;27.60;30.50;;;;;;5016926;28;20022;-65
2023/08/22 02:47:35;;;;;;;0.65;0.45;;;27.70;32.30;;;;;;5030585;28;20113;-65
2023/08/22 02:50:02;;;;;;;1.63;0.60;;;28.50;30.70;;;;;;5030562;28;20030;-65
2023/08/22 02:52:30;;;;;;;0.90;0.73;;;28.40;31.10;;;;;;5030478;28;20026;-65
2023/08/22 02:54:57;;;;;;;0.55;0.50;;;29.00;31.00;;;;;;5032185;28;20029;-65
2023/08/22 02:57:25;;;;;;;1.42;0.70;;;28.60;30.10;;;;;;5015180;28;20014;-65
2023/08/22 02:59:52;;;;;;;1.50;0.60;;;28.50;31.20;;;;;;5014925;28;20045;-65
2023/08/22 03:02:20;;;;;;;0.57;0.50;;;28.40;31.50;;;;;;5014013;28;20029;-65
2023/08/22 03:04:47;;;;;;;2.10;0.60;;;28.40;30.40;;;;;;5030425;28;20112;-65
2023/08/22 03:07:15;;;;;;;0.60;0.50;;;28.00;31.80;;;;;;5031537;28;20112;-64
2023/08/22 03:09:44;;;;;;;4.13;3.55;;;28.70;30.40;;;;;;5034750;28;20030;-62
2023/08/22 03:12:11;;;;;;;1.38;0.50;;;28.90;30.10;;;;;;5018737;28;20515;-62
2023/08/22 03:14:42;;;;;;;0.80;0.40;;;28.10;30.00;;;;;;5033828;28;20029;-62
2023/08/22 03:17:12;;;;;;;0.95;0.60;;;27.90;29.40;;;;;;5036071;28;20113;-62
2023/08/22 03:19:39;;;;;;;0.55;0.50;;;27.60;31.20;;;;;;5035042;28;20431;-61
2023/08/22 03:22:07;;;;;;;0.52;0.50;;;27.40;31.70;;;;;;5034121;28;20518;-61
2023/08/22 03:24:34;;;;;;;0.65;0.52;;;26.90;32.00;;;;;;5034069;28;20034;-61
2023/08/22 03:27:04;;;;;;;0.93;0.50;;;26.80;33.00;;;;;;5034226;28;20022;-63
2023/08/22 03:29:38;;;;;;;1.33;0.50;;;27.10;32.90;;;;;;5017927;28;20347;-63
2023/08/22 03:32:13;;;;;;;1.15;0.60;;;27.10;31.90;;;;;;5034096;28;20437;-63
2023/08/22 03:34:44;;;;;;;1.20;0.52;;;27.10;31.80;;;;;;5034077;28;20360;-62
2023/08/22 03:37:14;;;;;;;1.00;0.60;;;27.00;32.00;;;;;;5018455;28;20025;-65
2023/08/22 03:39:43;;;;;;;1.17;0.60;;;27.00;32.80;;;;;;5018700;28;20022;-65
2023/08/22 03:44:45;;;;;;;1.60;0.50;;;26.70;33.50;;;;;;4917235;27;6133829;-60
2023/08/22 03:47:15;;;;;;;1.23;0.65;;;26.80;33.90;;;;;;5114657;28;20032;-63
2023/08/22 03:49:44;;;;;;;1.23;0.40;;;26.80;33.60;;;;;;5095744;28;20024;-70
2023/08/22 03:52:13;;;;;;;0.75;0.50;;;26.70;33.20;;;;;;5091652;28;20032;-71
2023/08/22 03:54:42;;;;;;;1.30;0.50;;;26.50;34.10;;;;;;5093609;28;20020;-74
2023/08/22 03:57:09;;;;;;;1.58;0.70;;;26.40;35.20;;;;;;5093241;28;20016;-73
2023/08/22 03:59:37;;;;;;;0.63;0.60;;;26.30;34.90;;;;;;5092209;28;20124;-72
2023/08/22 04:02:04;;;;;;;0.40;0.40;;;26.40;34.50;;;;;;5092423;28;20024;-71
2023/08/22 04:04:32;;;;;;;0.95;0.60;;;26.20;35.50;;;;;;5090785;28;20082;-73
2023/08/22 04:06:59;;;;;;;1.10;0.70;;;26.40;35.30;;;;;;5091406;28;20020;-72
2023/08/22 04:09:27;;;;;;;0.95;0.68;;;26.10;35.10;;;;;;5091202;28;20020;-72
2023/08/22 04:11:55;;;;;;;1.02;0.60;;;25.90;35.20;;;;;;5091039;28;20020;-72
2023/08/22 04:14:22;;;;;;;0.75;0.60;;;25.90;36.30;;;;;;5091054;28;20025;-73
2023/08/22 04:16:50;;;;;;;0.80;0.60;;;26.00;36.00;;;;;;5090826;28;20020;-73
2023/08/22 04:19:17;;;;;;;1.25;0.50;;;26.10;36.50;;;;;;5090731;28;20048;-72
2023/08/22 04:21:45;;;;;;;2.08;0.60;;;26.20;35.70;;;;;;5090380;28;20498;-71
2023/08/22 04:24:12;;;;;;;1.27;0.70;;;26.20;36.00;;;;;;5090236;28;20059;-72
2023/08/22 04:26:42;;;;;;;0.68;0.60;;;26.30;36.50;;;;;;5090576;28;20035;-72
2023/08/22 04:29:09;;;;;;;0.63;0.50;;;26.10;36.00;;;;;;5091705;28;20024;-72
2023/08/22 04:31:37;;;;;;;1.52;0.50;;;26.00;36.30;;;;;;5090815;28;20031;-72
2023/08/22 04:34:07;;;;;;;1.80;0.68;;;25.90;35.90;;;;;;5091907;28;20025;-72
2023/08/22 04:36:34;;;;;;;1.52;0.77;;;26.20;36.00;;;;;;5092158;28;20104;-72
2023/08/22 04:39:02;;;;;;;4.25;1.00;;;26.10;36.00;;;;;;5091396;28;20020;-67
2023/08/22 04:41:30;;;;;;;0.50;0.50;;;26.20;35.90;;;;;;5090549;28;20477;-67
2023/08/22 04:43:57;;;;;;;1.00;0.50;;;26.00;36.30;;;;;;5089960;28;20446;-67
2023/08/22 04:46:25;;;;;;;0.60;0.60;;;26.00;36.00;;;;;;5091435;28;20017;-67
2023/08/22 04:48:52;;;;;;;1.85;0.50;;;26.20;35.80;;;;;;5090932;28;20454;-67
2023/08/22 04:51:20;;;;;;;1.02;0.70;;;26.50;35.80;;;;;;5090253;28;20020;-67
2023/08/22 04:53:47;;;;;;;3.20;1.33;;;26.50;35.80;;;;;;5091221;28;20036;-67
2023/08/22 04:56:15;;;;;;;1.23;0.70;;;26.20;35.80;;;;;;5077224;28;20016;-67
2023/08/22 04:58:43;;;;;;;1.67;0.73;;;26.10;35.70;;;;;;5076658;28;20024;-67
2023/08/22 05:01:10;;;;;;;1.60;0.57;;;26.10;35.70;;;;;;5076835;28;20106;-67
2023/08/22 05:03:42;;;;;;;1.48;0.63;;;26.20;35.50;;;;;;5076618;28;20265;-66
2023/08/22 05:06:17;;;;;;;0.82;0.50;;;26.10;36.50;;;;;;5078334;28;20091;-63
2023/08/22 05:08:45;;;;;;;0.77;0.60;;;26.00;35.60;;;;;;5078250;28;20028;-63
2023/08/22 05:11:12;;;;;;;1.42;0.90;;;26.10;36.70;;;;;;5077531;28;20462;-63
2023/08/22 05:13:40;;;;;;;0.93;0.75;;;25.90;36.10;;;;;;5076354;28;20021;-62
2023/08/22 05:16:07;;;;;;;1.55;0.80;;;25.80;36.40;;;;;;5076331;28;20052;-63
2023/08/22 05:18:35;;;;;;;2.03;0.65;;;25.60;36.70;;;;;;5076246;28;20024;-63
2023/08/22 05:21:02;;;;;;;1.80;0.80;;;25.80;37.30;;;;;;5076151;28;20032;-63
2023/08/22 05:23:30;;;;;;;1.45;0.88;;;25.70;35.80;;;;;;5077149;28;20077;-63
2023/08/22 05:25:58;;;;;;;1.05;0.73;;;25.50;36.40;;;;;;5076080;28;20458;-62
2023/08/22 05:28:25;;;;;;;2.05;1.00;;;25.40;36.70;;;;;;5076976;28;20028;-63
2023/08/22 05:30:53;;;;;;;2.40;0.73;;;25.20;37.50;;;;;;5075999;28;20024;-63
2023/08/22 05:33:20;;;;;;;1.52;0.60;;;25.20;36.80;;;;;;5075307;28;20039;-63
2023/08/22 05:35:48;;;;;;;1.00;0.60;;;25.10;37.00;;;;;;5076059;28;20025;-63
2023/08/22 05:38:15;;;;;;;1.63;0.65;;;25.10;36.90;;;;;;5075566;28;20067;-63
2023/08/22 05:40:43;;;;;;;1.30;0.80;;;25.10;37.30;;;;;;5075746;28;20085;-63
2023/08/22 05:43:11;;;;;;;1.88;0.70;;;25.10;37.60;;;;;;5074876;28;20068;-62
2023/08/22 05:45:38;;;;;;;0.60;0.50;;;25.10;37.80;;;;;;5075597;28;20111;-62
2023/08/22 05:48:06;;;;;;;0.90;0.63;;;25.10;37.70;;;;;;5075662;28;20082;-63
2023/08/22 05:50:34;;;;;;;2.70;0.68;;;24.90;37.90;;;;;;5075529;28;20046;-63
2023/08/22 05:53:01;;;;;;;2.25;0.80;;;24.90;38.40;;;;;;5075621;28;20090;-64
2023/08/22 05:55:31;;;;;;;1.98;0.60;;;24.80;38.70;;;;;;5075585;28;20112;-63
2023/08/22 05:57:58;;;;;;;1.60;0.82;;;24.80;38.10;;;;;;5076464;28;20078;-63
2023/08/22 06:00:26;;;;;;;1.92;0.65;;;24.80;38.20;;;;;;5076573;28;20104;-62
2023/08/22 06:02:53;;;;;;;1.10;0.70;;;24.70;37.70;;;;;;5075316;28;20024;-63
2023/08/22 06:05:21;;;;;;;2.33;0.80;;;24.60;38.10;;;;;;5076332;28;20023;-64
2023/08/22 06:07:48;;;;;;;1.50;0.80;;;24.70;38.50;;;;;;5073867;28;20355;-62
2023/08/22 06:10:16;;;;;;;2.33;0.77;;;24.70;38.20;;;;;;5074956;28;20124;-64
2023/08/22 06:12:43;;;;;;;1.55;0.98;;;24.90;37.30;;;;;;5075041;28;20046;-63
2023/08/22 06:15:11;;;;;;;3.08;0.90;;;25.00;37.80;;;;;;5075079;28;20025;-63
2023/08/22 06:17:39;;;;;;;1.30;0.70;;;25.30;37.00;;;;;;5074923;28;20032;-63
2023/08/22 06:20:07;;;;;;;2.42;1.23;;;26.30;36.30;;;;;;5074952;28;20029;-68
2023/08/22 06:22:35;;;;;;;1.10;0.80;;;26.80;35.70;;;;;;5075042;28;20040;-69
2023/08/22 06:25:05;;;;;;;1.35;0.80;;;26.80;34.80;;;;;;5074981;28;20358;-70
2023/08/22 06:27:33;;;;;;;1.60;0.60;;;26.10;35.10;;;;;;5074962;28;20466;-68
2023/08/22 06:30:02;;;;;;;2.60;1.00;;;25.40;35.80;;;;;;5074813;28;20028;-68
2023/08/22 06:32:30;;;;;;;1.77;0.80;;;26.80;34.80;;;;;;5074904;28;20021;-68
2023/08/22 06:35:01;;;;;;;2.47;1.00;;;28.80;32.40;;;;;;5074802;28;20335;-69
2023/08/22 06:37:31;;;;;;;1.10;0.63;;;27.30;34.20;;;;;;5075739;28;20060;-69
2023/08/22 06:39:59;;;;;;;0.77;0.65;;;26.10;35.50;;;;;;5074540;28;20362;-69
2023/08/22 06:42:26;;;;;;;0.90;0.70;;;25.50;36.40;;;;;;5075450;28;20025;-70
2023/08/22 06:44:54;;;;;;;1.15;0.70;;;25.10;36.90;;;;;;5074624;28;20340;-69
2023/08/22 06:47:21;;;;;;;1.25;0.60;;;25.00;36.40;;;;;;5074676;28;20377;-69
2023/08/22 06:49:49;;;;;;;0.85;0.60;;;24.90;36.70;;;;;;5074335;28;20050;-69
2023/08/22 06:52:17;;;;;;;1.38;1.00;;;24.70;36.90;;;;;;5075461;28;20034;-69
2023/08/22 06:54:44;;;;;;;1.38;0.77;;;24.30;42.70;;;;;;5074315;28;20055;-69
2023/08/22 06:57:12;;;;;;;4.20;1.20;;;24.10;44.40;;;;;;5074294;28;20036;-69
2023/08/22 06:59:39;;;;;;;2.95;1.08;;;23.90;44.90;;;;;;5074174;28;20024;-69
2023/08/22 07:02:07;;;;;;;2.40;1.30;;;23.60;45.80;;;;;;5074197;28;20025;-68
2023/08/22 07:04:34;;;;;;;4.18;1.00;;;23.50;46.40;;;;;;5074039;28;20024;-68
2023/08/22 07:07:02;;;;;;;1.95;1.00;;;23.30;46.80;;;;;;5074215;28;20035;-69
2023/08/22 07:09:29;;;;;;;3.35;1.15;;;23.20;47.50;;;;;;5074026;28;20359;-69
2023/08/22 07:11:57;;;;;;;3.50;1.20;;;23.10;47.40;;;;;;5074065;28;20020;-68
2023/08/22 07:14:24;;;;;;;3.97;1.10;;;23.00;47.70;;;;;;5073982;28;20028;-69
2023/08/22 07:16:52;;;;;;;3.08;1.10;;;22.80;47.90;;;;;;5073829;28;20450;-69
2023/08/22 07:19:19;;;;;;;2.10;0.90;;;22.60;48.20;;;;;;5073200;28;20039;-69
2023/08/22 07:21:47;;;;;;;3.42;1.10;;;22.60;48.20;;;;;;5073523;28;20025;-70
2023/08/22 07:24:15;;;;;;;3.17;1.48;;;22.40;48.90;;;;;;5073616;28;20029;-70
2023/08/22 07:26:43;;;;;;;4.18;1.83;;;22.30;48.90;;;;;;5073870;28;20024;-70
2023/08/22 07:29:10;;;;;;;2.45;1.20;;;22.20;49.10;;;;;;5073777;28;20024;-68
2023/08/22 07:31:38;;;;;;;2.85;1.30;;;22.10;49.20;;;;;;5074778;28;20017;-68
2023/08/22 07:34:05;;;;;;;2.28;1.20;;;22.00;49.60;;;;;;5074793;28;20020;-70
2023/08/22 07:36:33;;;;;;;3.50;1.20;;;21.80;49.90;;;;;;5073861;28;20028;-69
2023/08/22 07:39:00;;;;;;;2.03;1.15;;;21.70;50.20;;;;;;5074874;28;20025;-69
2023/08/22 07:41:28;;;;;;;3.45;1.10;;;21.60;50.10;;;;;;5073824;28;20032;-69
2023/08/22 07:43:55;;;;;;;2.50;1.35;;;21.60;49.90;;;;;;5074476;28;20044;-68
2023/08/22 07:46:23;;;;;;;1.58;1.10;;;21.50;50.00;;;;;;5073803;28;20469;-68
2023/08/22 07:48:51;;;;;;;3.03;1.00;;;21.50;50.20;;;;;;5073690;28;20183;-69
2023/08/22 07:51:19;;;;;;;4.95;1.40;;;21.30;50.30;;;;;;5073716;28;20029;-69
2023/08/22 07:53:46;;;;;;;2.95;1.20;;;21.30;50.70;;;;;;5074670;28;20024;-69
2023/08/22 07:56:14;;;;;;;2.97;1.42;;;21.10;50.80;;;;;;5074654;28;20398;-70
2023/08/22 07:58:42;;;;;;;3.70;1.60;;;21.10;51.00;;;;;;5073466;28;20036;-69
2023/08/22 08:01:09;;;;;;;1.98;1.00;;;20.90;51.20;;;;;;5073572;28;20032;-70
2023/08/22 08:03:36;;;;;;;2.10;1.20;;;20.90;51.40;;;;;;5073177;28;20020;-68
2023/08/22 08:06:04;;;;;;;2.60;1.50;;;20.80;51.40;;;;;;5073687;28;20028;-65
2023/08/22 08:08:32;;;;;;;3.28;1.67;;;20.70;52.00;;;;;;5073431;28;20025;-62
2023/08/22 08:11:02;;;;;;;2.97;1.50;;;20.70;52.00;;;;;;5073284;28;20370;-61
2023/08/22 08:13:29;;;;;;;3.47;1.30;;;20.60;52.00;;;;;;5074464;28;20024;-62
2023/08/22 08:15:57;;;;;;;3.38;1.48;;;20.50;52.10;;;;;;5073366;28;20066;-62
2023/08/22 08:18:24;;;;;;;2.67;1.25;;;20.50;52.30;;;;;;5056760;28;20056;-62
2023/08/22 08:20:52;;;;;;;3.55;1.35;;;20.50;52.10;;;;;;5073334;28;20067;-61
2023/08/22 08:23:19;;;;;;;3.90;1.73;;;20.50;52.20;;;;;;5073160;28;20481;-62
2023/08/22 08:25:47;;;;;;;3.13;1.60;;;20.50;52.40;;;;;;5073301;28;20115;-62
2023/08/22 08:28:14;;;;;;;4.95;1.85;;;20.40;52.40;;;;;;5073262;28;20020;-62
2023/08/22 08:30:42;;;;;;;4.82;1.85;;;20.30;52.60;;;;;;5075664;28;20020;-62
2023/08/22 08:33:09;;;;;;;3.97;1.90;;;20.20;52.80;;;;;;5076922;28;20035;-62
2023/08/22 08:35:39;;;;;;;3.75;1.55;;;20.10;52.80;;;;;;5076347;28;20336;-61
2023/08/22 08:38:07;;;;;;;2.72;1.67;;;20.20;53.00;;;;;;5077882;28;20063;-61
2023/08/22 08:40:38;;;;;;;3.05;1.60;;;20.10;53.10;;;;;;5076289;28;20052;-60
2023/08/22 08:43:05;;;;;;;2.50;1.80;;;20.00;53.10;;;;;;5076422;28;20045;-60
2023/08/22 08:45:35;;;;;;;3.13;2.00;;;20.10;53.00;;;;;;5076702;28;20454;-61
2023/08/22 08:48:04;;;;;;;3.08;1.52;;;20.00;53.30;;;;;;5076969;28;20178;-61
2023/08/22 08:50:32;;;;;;;4.07;1.55;;;20.00;53.20;;;;;;5076639;28;20474;-61
2023/08/22 08:53:00;;;;;;;3.28;1.75;;;19.90;53.40;;;;;;5076671;28;20028;-62
2023/08/22 08:55:27;;;;;;;4.47;1.90;;;19.90;53.70;;;;;;5077676;28;20438;-63
2023/08/22 08:57:58;;;;;;;3.88;1.40;;;19.90;53.60;;;;;;5076411;28;20458;-63
2023/08/22 09:00:26;;;;;;;2.58;1.50;;;19.80;53.30;;;;;;5077878;28;20036;-61
2023/08/22 09:02:57;;;;;;;2.45;1.38;;;19.90;53.50;;;;;;5079043;28;20056;-63
2023/08/22 09:05:25;;;;;;;2.95;1.50;;;19.80;53.10;;;;;;5077417;28;20116;-59
2023/08/22 09:07:53;;;;;;;2.25;1.50;;;19.80;53.10;;;;;;5076741;28;20124;-59
2023/08/22 09:10:34;;;;;;;2.10;1.42;;;19.80;53.00;;;;;;5075310;28;20025;-62
2023/08/22 09:13:04;;;;;;;3.55;1.48;;;19.90;52.50;;;;;;5075586;28;20039;-63
2023/08/22 09:15:32;;;;;;;1.67;1.30;;;19.90;52.60;;;;;;5075968;28;20058;-63
2023/08/22 09:18:00;;;;;;;2.83;1.38;;;19.80;52.60;;;;;;5077150;28;20025;-63
2023/08/22 09:20:29;;;;;;;1.98;1.20;;;19.80;52.90;;;;;;5077126;28;20028;-63
2023/08/22 09:22:57;;;;;;;3.13;1.40;;;19.90;50.60;;;;;;5075926;28;20020;-62
2023/08/22 09:25:40;;;;;;;2.33;1.50;;;20.00;50.20;;;;;;5077134;28;20035;-63
2023/08/22 09:28:10;;;;;;;1.65;1.20;;;20.00;49.70;;;;;;5076200;28;20020;-62
2023/08/22 09:30:46;;;;;;;2.38;1.67;;;20.00;49.40;;;;;;5075951;28;20362;-63
2023/08/22 09:33:13;;;;;;;2.80;1.40;;;20.10;49.40;;;;;;5076077;28;20031;-62
2023/08/22 09:35:41;;;;;;;2.22;1.45;;;20.10;49.30;;;;;;5075294;28;20450;-62
2023/08/22 09:38:12;;;;;;;2.92;1.60;;;20.00;49.30;;;;;;5076327;28;20116;-63
2023/08/22 09:40:56;;;;;;;2.83;1.73;;;20.00;49.30;;;;;;5075090;28;20048;-63
2023/08/22 09:43:27;;;;;;;3.45;2.70;;;19.90;49.60;;;;;;5074913;28;20055;-62
2023/08/22 09:45:56;;;;;;;4.20;2.03;;;19.80;50.10;;;;;;5075391;28;20062;-62
2023/08/22 09:48:30;;;;;;;3.42;1.70;;;19.70;50.20;;;;;;5075536;28;20027;-62
2023/08/22 09:51:00;;;;;;;5.60;3.10;;;19.50;51.50;;;;;;5076791;28;20024;-62
2023/08/22 09:53:28;;;;;;;2.40;1.85;;;19.20;51.30;;;;;;5059040;28;20032;-62
2023/08/22 09:55:56;;;;;;;3.53;2.00;;;19.10;50.40;;;;;;5075599;28;20036;-61
2023/08/22 09:58:26;;;;;;;3.30;1.95;;;19.20;51.10;;;;;;5075463;28;20024;-62
2023/08/22 10:00:56;;;;;;;3.47;2.55;;;19.10;51.60;;;;;;5059384;28;20039;-64
2023/08/22 10:03:26;;;;;;;2.97;1.80;;;18.90;52.80;;;;;;5075344;28;20039;-62
2023/08/22 10:05:55;;;;;;;3.20;2.05;;;18.80;52.40;;;;;;5075372;28;20354;-62
2023/08/22 10:08:22;;;;;;;3.25;1.70;;;18.90;52.80;;;;;;5075347;28;20028;-62
2023/08/22 10:10:50;;;;;;;4.68;1.80;;;18.90;53.10;;;;;;5075415;28;20028;-62
2023/08/22 10:13:21;;;;;;;3.45;1.55;;;18.90;52.70;;;;;;5075284;28;20119;-63
2023/08/22 10:15:50;;;;;;;2.15;1.50;;;18.90;53.60;;;;;;5076289;28;20075;-62
2023/08/22 10:18:22;;;;;;;2.08;1.48;;;19.00;54.00;;;;;;5076257;28;20351;-62
2023/08/22 10:20:50;;;;;;;3.20;1.67;;;19.10;54.50;;;;;;5076142;28;20016;-63
2023/08/22 10:23:17;;;;;;;1.90;1.40;;;19.00;55.40;;;;;;5076092;28;20064;-63
2023/08/22 10:25:50;;;;;;;3.65;1.88;;;18.80;56.00;;;;;;5075132;28;20107;-62
2023/08/22 10:28:18;;;;;;;3.08;1.58;;;18.80;56.10;;;;;;5074922;28;20024;-62
2023/08/22 10:31:05;;;;;;;2.63;1.52;;;18.80;56.00;;;;;;5075019;28;20119;-63
2023/08/22 10:33:33;;;;;;;2.70;1.55;;;18.70;56.30;;;;;;5075234;28;20358;-62
2023/08/22 10:36:17;;;;;;;3.08;1.92;;;18.70;56.30;;;;;;5075955;28;20444;-63
2023/08/22 10:38:57;;;;;;;3.17;1.50;;;18.70;56.30;;;;;;5074795;28;20036;-63
2023/08/22 10:41:44;;;;;;;3.40;1.50;;;18.70;56.50;;;;;;5074572;28;20024;-63
2023/08/22 10:44:30;;;;;;;3.63;1.30;;;18.70;56.30;;;;;;5075597;28;20462;-63
2023/08/22 10:47:09;;;;;;;2.55;1.50;;;18.80;56.60;;;;;;5074807;28;20108;-63
2023/08/22 10:49:40;;;;;;;3.45;1.70;;;18.70;56.40;;;;;;5074658;28;20075;-65
2023/08/22 10:52:09;;;;;;;3.67;1.73;;;18.60;56.70;;;;;;5074344;28;20028;-63
2023/08/22 10:55:10;;;;;;;3.22;1.65;;;18.70;56.60;;;;;;5074656;28;20086;-63
2023/08/22 10:57:42;;;;;;;3.78;1.50;;;18.60;56.90;;;;;;5075565;28;20451;-65
2023/08/22 11:00:31;;;;;;;2.55;1.50;;;18.60;57.00;;;;;;5075555;28;20020;-63
2023/08/22 11:03:00;;;;;;;3.05;1.60;;;18.60;57.00;;;;;;5074394;28;20115;-63
2023/08/22 11:05:28;;;;;;;2.33;1.52;;;18.60;57.20;;;;;;5075498;28;20048;-63
2023/08/22 11:07:55;;;;;;;3.13;1.55;;;18.60;56.90;;;;;;5074308;28;20103;-63
2023/08/22 11:10:25;;;;;;;3.72;1.60;;;18.60;57.10;;;;;;5074421;28;20134;-64
2023/08/22 11:12:56;;;;;;;2.63;1.45;;;18.60;56.90;;;;;;5074698;28;20078;-63
2023/08/22 11:15:24;;;;;;;1.92;1.50;;;18.70;56.60;;;;;;5074714;28;20111;-63
2023/08/22 11:17:51;;;;;;;3.35;1.95;;;18.70;56.70;;;;;;5075252;28;20103;-64
2023/08/22 11:20:21;;;;;;;3.38;1.60;;;18.70;56.70;;;;;;5074286;28;20049;-63
2023/08/22 11:22:48;;;;;;;3.75;1.55;;;18.70;56.70;;;;;;5057716;28;20043;-63
2023/08/22 11:25:25;;;;;;;3.03;1.67;;;18.60;56.90;;;;;;5075169;28;20066;-64
2023/08/22 11:27:53;;;;;;;4.40;1.90;;;18.60;56.90;;;;;;5074152;28;20024;-64
2023/08/22 11:30:21;;;;;;;2.60;1.73;;;18.50;57.20;;;;;;5074147;28;20454;-64
2023/08/22 11:32:49;;;;;;;2.83;1.73;;;18.50;57.20;;;;;;5074200;28;20028;-63
2023/08/22 11:35:17;;;;;;;4.10;1.70;;;18.50;57.20;;;;;;5074093;28;20346;-63
2023/08/22 11:37:45;;;;;;;4.32;2.10;;;18.50;59.00;;;;;;5075096;28;20032;-63
2023/08/22 11:40:15;;;;;;;4.97;2.13;;;18.40;60.80;;;;;;5074236;28;20020;-63
2023/08/22 11:42:46;;;;;;;5.60;2.30;;;18.10;64.30;;;;;;5073887;28;20049;-61
2023/08/22 11:45:20;;;;;;;7.95;2.58;;;17.90;67.60;;;;;;5075170;28;20078;-64
2023/08/22 11:47:50;;;;;;;4.00;2.25;;;17.70;67.60;;;;;;5074158;28;20062;-62
2023/08/22 11:50:29;;;;;;;3.08;2.20;;;17.60;67.40;;;;;;5074337;28;20021;-63
2023/08/22 11:52:58;;;;;;;5.53;2.33;;;17.60;66.50;;;;;;5074033;28;20443;-63
2023/08/22 11:55:28;;;;;;;5.10;2.28;;;17.60;67.70;;;;;;5075020;28;20459;-63
2023/08/22 11:58:00;;;;;;;4.47;2.13;;;17.70;66.90;;;;;;5073875;28;20355;-63
2023/08/22 12:00:28;;;;;;;;;;;17.50;67.00;;;;;;5074405;28;20021;-63
2023/08/22 12:03:01;;;;;;;11.00;2.65;;;17.40;66.90;;;;;;5073920;28;19909;-62
2023/08/22 12:05:38;;;;;;;3.22;2.20;;;17.10;67.40;;;;;;5076059;28;20081;-63
2023/08/22 12:08:12;;;;;;;5.05;2.30;;;17.40;66.10;;;;;;5077953;28;20025;-63
2023/08/22 12:10:50;;;;;;;3.92;2.28;;;17.30;65.50;;;;;;5079020;28;20021;-63
2023/08/22 12:13:23;;;;;;;5.72;2.03;;;17.40;66.70;;;;;;5062618;28;20032;-63
2023/08/22 12:15:52;;;;;;;4.15;2.00;;;17.40;68.00;;;;;;5077852;28;20028;-62
2023/08/22 12:18:20;;;;;;;4.22;2.30;;;17.20;67.60;;;;;;5077600;28;20039;-63
2023/08/22 12:20:49;;;;;;;3.35;1.90;;;17.00;71.10;;;;;;5077635;28;20100;-62
2023/08/22 12:23:17;;;;;;;3.92;1.90;;;17.00;69.50;;;;;;5077527;28;20462;-62
2023/08/22 12:25:45;;;;;;;3.92;1.85;;;17.00;69.40;;;;;;5077520;28;20028;-62
2023/08/22 12:28:14;;;;;;;6.38;2.10;;;16.90;71.20;;;;;;5078434;28;20017;-63
2023/08/22 12:30:42;;;;;;;5.72;1.80;;;16.50;73.50;;;;;;5077479;28;20074;-63
2023/08/22 12:33:10;;;;;;;3.72;1.80;;;16.40;73.10;;;;;;5077223;28;20028;-62
2023/08/22 12:35:39;;;;;;;3.38;1.80;;;16.50;71.60;;;;;;5077301;28;20047;-63
2023/08/22 12:38:07;;;;;;;3.38;1.80;;;16.60;71.00;;;;;;5077171;28;20123;-63
2023/08/22 12:40:35;;;;;;;4.15;1.70;;;16.50;71.50;;;;;;5078310;28;20100;-62
2023/08/22 12:43:03;;;;;;;2.67;1.60;;;16.50;71.30;;;;;;5076872;28;20072;-63
2023/08/22 12:45:31;;;;;;;3.25;1.90;;;16.50;71.80;;;;;;5078283;28;20115;-63
2023/08/22 12:47:58;;;;;;;2.35;1.60;;;16.50;71.50;;;;;;5077083;28;20035;-62
2023/08/22 12:50:26;;;;;;;3.47;1.70;;;16.40;72.40;;;;;;5077131;28;20028;-63
2023/08/22 12:52:53;;;;;;;3.67;1.88;;;16.30;72.20;;;;;;5077950;28;20025;-63
2023/08/22 12:55:21;;;;;;;2.70;1.65;;;16.20;72.90;;;;;;5076863;28;20036;-63
2023/08/22 12:57:49;;;;;;;4.63;1.60;;;16.20;72.70;;;;;;5077891;28;20081;-63
2023/08/22 13:00:17;;;;;;;2.65;1.58;;;16.10;73.30;;;;;;5076787;28;20029;-62